sensor_id;sensor_type;location;lat;lon;timestamp;pressure;altitude;pressure_sealevel;temperature;humidity
50684;BME280;36654;45.042;38.994;2023-02-12T00:00:07;102281.63;;;-2.47;68.25
50684;BME280;36654;45.042;38.994;2023-02-12T00:02:33;102274.66;;;-2.38;68.02
50684;BME280;36654;45.042;38.994;2023-02-12T00:04:59;102266.75;;;-2.40;67.86
50684;BME280;36654;45.042;38.994;2023-02-12T00:07:24;102271.09;;;-2.20;67.31
50684;BME280;36654;45.042;38.994;2023-02-12T00:09:50;102277.69;;;-2.23;67.18
50684;BME280;36654;45.042;38.994;2023-02-12T00:12:16;102268.34;;;-2.31;67.36
50684;BME280;36654;45.042;38.994;2023-02-12T00:14:41;102256.38;;;-2.40;68.12
50684;BME280;36654;45.042;38.994;2023-02-12T00:17:07;102253.72;;;-2.50;68.35
50684;BME280;36654;45.042;38.994;2023-02-12T00:19:32;102241.53;;;-2.51;68.46
50684;BME280;36654;45.042;38.994;2023-02-12T00:21:58;102246.19;;;-2.57;68.60
50684;BME280;36654;45.042;38.994;2023-02-12T00:24:23;102233.97;;;-2.58;68.57
50684;BME280;36654;45.042;38.994;2023-02-12T00:26:49;102244.25;;;-2.49;68.86
50684;BME280;36654;45.042;38.994;2023-02-12T00:29:15;102238.97;;;-2.30;68.19
50684;BME280;36654;45.042;38.994;2023-02-12T00:31:41;102229.91;;;-2.05;67.40
50684;BME280;36654;45.042;38.994;2023-02-12T00:34:06;102224.44;;;-1.87;66.87
50684;BME280;36654;45.042;38.994;2023-02-12T00:36:32;102222.13;;;-1.84;66.51
50684;BME280;36654;45.042;38.994;2023-02-12T00:38:58;102155.06;;;-2.19;66.51
50684;BME280;36654;45.042;38.994;2023-02-12T00:41:24;102209.41;;;-2.02;66.58
50684;BME280;36654;45.042;38.994;2023-02-12T00:43:50;102202.91;;;-2.07;67.04
50684;BME280;36654;45.042;38.994;2023-02-12T00:46:16;102193.00;;;-2.11;67.18
50684;BME280;36654;45.042;38.994;2023-02-12T00:48:42;102196.13;;;-2.15;67.58
50684;BME280;36654;45.042;38.994;2023-02-12T00:51:08;102184.16;;;-2.23;67.77
50684;BME280;36654;45.042;38.994;2023-02-12T00:53:34;102190.16;;;-2.24;67.96
50684;BME280;36654;45.042;38.994;2023-02-12T00:56:00;102183.91;;;-2.26;68.27
50684;BME280;36654;45.042;38.994;2023-02-12T00:58:26;102189.63;;;-2.20;68.38
50684;BME280;36654;45.042;38.994;2023-02-12T01:00:53;102185.47;;;-2.18;68.51
50684;BME280;36654;45.042;38.994;2023-02-12T01:03:19;102173.78;;;-2.23;68.66
50684;BME280;36654;45.042;38.994;2023-02-12T01:05:45;102173.25;;;-2.19;68.81
50684;BME280;36654;45.042;38.994;2023-02-12T01:08:12;102173.25;;;-2.19;69.11
50684;BME280;36654;45.042;38.994;2023-02-12T01:10:38;102180.28;;;-2.18;69.29
50684;BME280;36654;45.042;38.994;2023-02-12T01:13:04;102170.78;;;-2.18;69.50
50684;BME280;36654;45.042;38.994;2023-02-12T01:15:30;102153.50;;;-2.27;69.38
50684;BME280;36654;45.042;38.994;2023-02-12T01:17:55;102168.31;;;-2.16;69.54
50684;BME280;36654;45.042;38.994;2023-02-12T01:20:23;102157.94;;;-2.16;69.61
50684;BME280;36654;45.042;38.994;2023-02-12T01:22:49;102140.53;;;-2.17;69.61
50684;BME280;36654;45.042;38.994;2023-02-12T01:25:15;102086.50;;;-2.42;69.83
50684;BME280;36654;45.042;38.994;2023-02-12T01:27:40;102130.13;;;-2.17;70.17
50684;BME280;36654;45.042;38.994;2023-02-12T01:30:08;102147.78;;;-2.13;69.91
50684;BME280;36654;45.042;38.994;2023-02-12T01:32:34;102061.28;;;-2.63;70.05
50684;BME280;36654;45.042;38.994;2023-02-12T01:35:00;102084.94;;;-2.40;70.00
50684;BME280;36654;45.042;38.994;2023-02-12T01:37:25;102120.91;;;-2.24;69.79
50684;BME280;36654;45.042;38.994;2023-02-12T01:39:51;102134.53;;;-2.16;69.52
50684;BME280;36654;45.042;38.994;2023-02-12T01:42:17;102140.00;;;-2.13;69.41
50684;BME280;36654;45.042;38.994;2023-02-12T01:45:22;102129.75;;;-2.11;69.11
50684;BME280;36654;45.042;38.994;2023-02-12T01:47:54;102105.31;;;-2.34;68.82
50684;BME280;36654;45.042;38.994;2023-02-12T01:50:21;102109.31;;;-2.27;68.82
50684;BME280;36654;45.042;38.994;2023-02-12T01:52:50;102121.81;;;-2.23;68.99
50684;BME280;36654;45.042;38.994;2023-02-12T01:55:16;102112.22;;;-2.24;69.23
50684;BME280;36654;45.042;38.994;2023-02-12T01:57:44;102112.72;;;-2.18;69.20
50684;BME280;36654;45.042;38.994;2023-02-12T02:00:19;102097.38;;;-2.15;69.04
50684;BME280;36654;45.042;38.994;2023-02-12T02:02:48;102101.25;;;-2.10;69.08
50684;BME280;36654;45.042;38.994;2023-02-12T02:05:22;102110.09;;;-2.08;69.23
50684;BME280;36654;45.042;38.994;2023-02-12T02:07:48;102117.50;;;-2.02;69.05
50684;BME280;36654;45.042;38.994;2023-02-12T02:10:14;102111.41;;;-2.03;69.29
50684;BME280;36654;45.042;38.994;2023-02-12T02:12:40;102108.78;;;-2.03;69.39
50684;BME280;36654;45.042;38.994;2023-02-12T02:15:45;102113.75;;;-2.06;69.27
50684;BME280;36654;45.042;38.994;2023-02-12T02:19:27;102110.09;;;-2.08;69.49
50684;BME280;36654;45.042;38.994;2023-02-12T02:21:48;102122.06;;;-2.10;69.59
50684;BME280;36654;45.042;38.994;2023-02-12T02:27:45;102108.03;;;-2.12;69.66
50684;BME280;36654;45.042;38.994;2023-02-12T02:36:22;102114.66;;;-2.05;69.85
50684;BME280;36654;45.042;38.994;2023-02-12T02:38:59;102054.28;;;-2.33;69.90
50684;BME280;36654;45.042;38.994;2023-02-12T02:41:58;102113.34;;;-2.00;69.80
50684;BME280;36654;45.042;38.994;2023-02-12T02:45:14;102112.59;;;-1.99;69.96
50684;BME280;36654;45.042;38.994;2023-02-12T02:47:47;102104.25;;;-2.05;69.91
50684;BME280;36654;45.042;38.994;2023-02-12T02:50:19;102042.34;;;-2.31;69.81
50684;BME280;36654;45.042;38.994;2023-02-12T02:52:52;102102.16;;;-1.89;69.85
50684;BME280;36654;45.042;38.994;2023-02-12T02:55:22;102096.56;;;-1.83;70.07
50684;BME280;36654;45.042;38.994;2023-02-12T02:57:56;102089.94;;;-1.80;69.92
50684;BME280;36654;45.042;38.994;2023-02-12T03:00:39;102080.94;;;-1.83;69.83
50684;BME280;36654;45.042;38.994;2023-02-12T03:03:33;102079.38;;;-1.71;69.92
50684;BME280;36654;45.042;38.994;2023-02-12T03:06:12;102062.91;;;-1.82;69.96
50684;BME280;36654;45.042;38.994;2023-02-12T03:08:48;102087.78;;;-1.63;69.96
50684;BME280;36654;45.042;38.994;2023-02-12T03:11:29;102086.38;;;-1.60;70.03
50684;BME280;36654;45.042;38.994;2023-02-12T03:16:30;102071.75;;;-1.58;70.33
50684;BME280;36654;45.042;38.994;2023-02-12T03:19:10;102073.69;;;-1.55;70.57
50684;BME280;36654;45.042;38.994;2023-02-12T03:21:41;102066.69;;;-1.56;70.49
50684;BME280;36654;45.042;38.994;2023-02-12T03:24:23;102079.72;;;-1.56;70.62
50684;BME280;36654;45.042;38.994;2023-02-12T03:26:59;102092.28;;;-1.50;70.83
50684;BME280;36654;45.042;38.994;2023-02-12T03:29:27;102078.56;;;-1.60;70.88
50684;BME280;36654;45.042;38.994;2023-02-12T03:38:06;102070.75;;;-1.60;71.55
50684;BME280;36654;45.042;38.994;2023-02-12T03:40:40;102072.81;;;-1.56;71.79
50684;BME280;36654;45.042;38.994;2023-02-12T03:43:46;102068.78;;;-1.52;72.15
50684;BME280;36654;45.042;38.994;2023-02-12T03:48:57;102050.44;;;-1.54;72.47
50684;BME280;36654;45.042;38.994;2023-02-12T03:51:38;102071.06;;;-1.45;72.75
50684;BME280;36654;45.042;38.994;2023-02-12T03:54:06;102066.00;;;-1.43;72.86
50684;BME280;36654;45.042;38.994;2023-02-12T03:56:37;102057.53;;;-1.41;73.05
50684;BME280;36654;45.042;38.994;2023-02-12T03:59:06;102058.69;;;-1.37;74.10
50684;BME280;36654;45.042;38.994;2023-02-12T04:01:32;102071.72;;;-1.37;74.81
50684;BME280;36654;45.042;38.994;2023-02-12T04:04:02;102074.41;;;-1.36;75.11
50684;BME280;36654;45.042;38.994;2023-02-12T04:06:28;102064.91;;;-1.35;75.65
50684;BME280;36654;45.042;38.994;2023-02-12T04:08:57;102060.50;;;-1.36;75.98
50684;BME280;36654;45.042;38.994;2023-02-12T04:11:36;102060.50;;;-1.36;76.39
50684;BME280;36654;45.042;38.994;2023-02-12T04:17:05;102050.34;;;-1.33;77.01
50684;BME280;36654;45.042;38.994;2023-02-12T04:22:52;102058.50;;;-1.28;78.54
50684;BME280;36654;45.042;38.994;2023-02-12T04:28:27;102068.75;;;-1.20;79.46
50684;BME280;36654;45.042;38.994;2023-02-12T04:31:04;102021.09;;;-1.41;80.12
50684;BME280;36654;45.042;38.994;2023-02-12T04:33:36;102057.03;;;-1.15;80.87
50684;BME280;36654;45.042;38.994;2023-02-12T04:36:15;102058.59;;;-1.17;81.61
50684;BME280;36654;45.042;38.994;2023-02-12T04:38:50;102058.81;;;-1.14;82.05
50684;BME280;36654;45.042;38.994;2023-02-12T04:41:18;102058.59;;;-1.17;82.34
50684;BME280;36654;45.042;38.994;2023-02-12T04:43:45;102061.44;;;-1.14;82.85
50684;BME280;36654;45.042;38.994;2023-02-12T04:46:10;102043.28;;;-1.02;83.26
50684;BME280;36654;45.042;38.994;2023-02-12T04:48:51;102025.16;;;-1.00;83.50
50684;BME280;36654;45.042;38.994;2023-02-12T04:51:17;102023.94;;;-0.94;83.97
50684;BME280;36654;45.042;38.994;2023-02-12T04:53:43;102031.31;;;-0.88;84.08
50684;BME280;36654;45.042;38.994;2023-02-12T04:56:10;102030.78;;;-0.84;84.31
50684;BME280;36654;45.042;38.994;2023-02-12T04:58:38;102028.63;;;-0.78;84.31
50684;BME280;36654;45.042;38.994;2023-02-12T05:01:03;102028.09;;;-0.74;84.34
50684;BME280;36654;45.042;38.994;2023-02-12T05:03:29;102039.78;;;-0.69;84.35
50684;BME280;36654;45.042;38.994;2023-02-12T05:05:54;102038.44;;;-0.63;84.25
50684;BME280;36654;45.042;38.994;2023-02-12T05:08:20;102038.78;;;-0.59;83.81
50684;BME280;36654;45.042;38.994;2023-02-12T05:10:45;101993.28;;;-0.86;83.58
50684;BME280;36654;45.042;38.994;2023-02-12T05:13:11;102044.22;;;-0.56;83.47
50684;BME280;36654;45.042;38.994;2023-02-12T05:15:39;102021.44;;;-0.58;83.33
50684;BME280;36654;45.042;38.994;2023-02-12T05:18:05;102020.00;;;-0.55;83.47
50684;BME280;36654;45.042;38.994;2023-02-12T05:20:31;102032.13;;;-0.44;83.00
50684;BME280;36654;45.042;38.994;2023-02-12T05:22:56;102015.59;;;-0.44;82.92
50684;BME280;36654;45.042;38.994;2023-02-12T05:25:25;101975.81;;;-0.53;83.01
50684;BME280;36654;45.042;38.994;2023-02-12T05:27:50;102008.38;;;-0.25;83.20
50684;BME280;36654;45.042;38.994;2023-02-12T05:30:20;102013.16;;;-0.19;83.38
50684;BME280;36654;45.042;38.994;2023-02-12T05:32:49;102013.00;;;-0.20;83.18
50684;BME280;36654;45.042;38.994;2023-02-12T05:35:17;102013.81;;;-0.22;82.98
50684;BME280;36654;45.042;38.994;2023-02-12T05:37:43;102027.88;;;-0.19;82.86
50684;BME280;36654;45.042;38.994;2023-02-12T05:40:09;101992.50;;;-0.39;82.42
50684;BME280;36654;45.042;38.994;2023-02-12T05:42:35;102015.72;;;-0.31;82.25
50684;BME280;36654;45.042;38.994;2023-02-12T05:45:00;101977.50;;;-0.66;81.94
50684;BME280;36654;45.042;38.994;2023-02-12T05:47:26;102016.72;;;-0.52;81.44
50684;BME280;36654;45.042;38.994;2023-02-12T05:49:52;102030.88;;;-0.49;81.09
50684;BME280;36654;45.042;38.994;2023-02-12T05:52:17;102023.59;;;-0.53;80.88
50684;BME280;36654;45.042;38.994;2023-02-12T05:54:43;102025.53;;;-0.50;80.84
50684;BME280;36654;45.042;38.994;2023-02-12T05:57:08;102010.13;;;-0.59;80.83
50684;BME280;36654;45.042;38.994;2023-02-12T05:59:34;102019.34;;;-0.52;80.60
50684;BME280;36654;45.042;38.994;2023-02-12T06:02:00;102009.03;;;-0.39;80.54
50684;BME280;36654;45.042;38.994;2023-02-12T06:04:26;102014.16;;;-0.29;80.69
50684;BME280;36654;45.042;38.994;2023-02-12T06:06:53;102013.59;;;-0.25;80.12
50684;BME280;36654;45.042;38.994;2023-02-12T06:09:20;102009.06;;;-0.15;80.26
50684;BME280;36654;45.042;38.994;2023-02-12T06:11:46;102012.22;;;-0.08;79.89
50684;BME280;36654;45.042;38.994;2023-02-12T06:14:15;102002.38;;;-0.12;79.95
50684;BME280;36654;45.042;38.994;2023-02-12T06:16:44;102011.53;;;-0.05;79.65
50684;BME280;36654;45.042;38.994;2023-02-12T06:19:10;102004.53;;;-0.06;79.47
50684;BME280;36654;45.042;38.994;2023-02-12T06:21:35;102009.53;;;-0.09;79.86
50684;BME280;36654;45.042;38.994;2023-02-12T06:24:01;102005.44;;;-0.17;80.03
50684;BME280;36654;45.042;38.994;2023-02-12T06:26:27;102005.44;;;-0.06;79.89
50684;BME280;36654;45.042;38.994;2023-02-12T06:28:53;101985.03;;;-0.11;80.04
50684;BME280;36654;45.042;38.994;2023-02-12T06:31:22;102005.91;;;0.01;80.25
50684;BME280;36654;45.042;38.994;2023-02-12T06:33:48;101990.69;;;-0.05;80.03
50684;BME280;36654;45.042;38.994;2023-02-12T06:36:15;101990.25;;;0.01;80.44
50684;BME280;36654;45.042;38.994;2023-02-12T06:38:41;101979.38;;;0.06;80.63
50684;BME280;36654;45.042;38.994;2023-02-12T06:41:07;101992.06;;;0.13;80.60
50684;BME280;36654;45.042;38.994;2023-02-12T06:43:33;101957.13;;;0.11;80.60
50684;BME280;36654;45.042;38.994;2023-02-12T06:46:02;101979.91;;;0.26;80.35
50684;BME280;36654;45.042;38.994;2023-02-12T06:48:28;101898.66;;;-0.04;80.18
50684;BME280;36654;45.042;38.994;2023-02-12T06:50:53;101938.53;;;0.18;80.13
50684;BME280;36654;45.042;38.994;2023-02-12T06:53:19;101968.41;;;0.47;80.45
50684;BME280;36654;45.042;38.994;2023-02-12T06:55:45;101959.19;;;0.52;80.28
50684;BME280;36654;45.042;38.994;2023-02-12T06:58:10;101966.78;;;0.61;80.42
50684;BME280;36654;45.042;38.994;2023-02-12T07:00:36;101961.78;;;0.64;80.32
50684;BME280;36654;45.042;38.994;2023-02-12T07:03:01;101885.88;;;0.36;80.46
50684;BME280;36654;45.042;38.994;2023-02-12T07:05:27;101904.38;;;0.52;80.35
50684;BME280;36654;45.042;38.994;2023-02-12T07:07:53;101950.81;;;0.81;80.29
50684;BME280;36654;45.042;38.994;2023-02-12T07:10:18;101956.88;;;0.94;80.32
50684;BME280;36654;45.042;38.994;2023-02-12T07:12:44;101938.13;;;0.99;79.57
50684;BME280;36654;45.042;38.994;2023-02-12T07:15:10;101959.97;;;1.13;79.13
50684;BME280;36654;45.042;38.994;2023-02-12T07:17:36;101877.13;;;0.85;78.57
50684;BME280;36654;45.042;38.994;2023-02-12T07:20:03;101947.06;;;1.41;78.15
50684;BME280;36654;45.042;38.994;2023-02-12T07:22:29;101898.81;;;1.23;77.86
50684;BME280;36654;45.042;38.994;2023-02-12T07:24:54;101946.50;;;1.59;77.14
50684;BME280;36654;45.042;38.994;2023-02-12T07:27:20;101949.84;;;1.83;76.19
50684;BME280;36654;45.042;38.994;2023-02-12T07:29:45;101882.78;;;1.70;75.27
50684;BME280;36654;45.042;38.994;2023-02-12T07:32:11;101916.22;;;2.15;74.07
50684;BME280;36654;45.042;38.994;2023-02-12T07:34:37;101924.31;;;2.33;74.12
50684;BME280;36654;45.042;38.994;2023-02-12T07:37:02;101932.06;;;2.45;73.65
50684;BME280;36654;45.042;38.994;2023-02-12T07:39:28;101934.25;;;2.52;72.86
50684;BME280;36654;45.042;38.994;2023-02-12T07:41:55;101917.19;;;2.59;72.52
50684;BME280;36654;45.042;38.994;2023-02-12T07:44:20;101913.97;;;2.63;72.30
50684;BME280;36654;45.042;38.994;2023-02-12T07:46:47;101927.63;;;2.72;71.38
50684;BME280;36654;45.042;38.994;2023-02-12T07:49:19;101922.41;;;2.72;71.23
50684;BME280;36654;45.042;38.994;2023-02-12T07:51:45;101915.91;;;2.80;71.07
50684;BME280;36654;45.042;38.994;2023-02-12T07:54:11;101900.19;;;2.80;70.43
50684;BME280;36654;45.042;38.994;2023-02-12T07:56:39;101890.97;;;2.72;70.26
50684;BME280;36654;45.042;38.994;2023-02-12T07:59:09;101888.28;;;2.86;70.55
50684;BME280;36654;45.042;38.994;2023-02-12T08:01:40;101894.88;;;2.94;70.13
50684;BME280;36654;45.042;38.994;2023-02-12T08:04:11;101918.00;;;3.01;69.76
50684;BME280;36654;45.042;38.994;2023-02-12T08:06:42;101915.69;;;3.20;69.64
50684;BME280;36654;45.042;38.994;2023-02-12T08:09:10;101915.59;;;3.34;69.03
50684;BME280;36654;45.042;38.994;2023-02-12T08:11:39;101901.94;;;3.54;68.15
50684;BME280;36654;45.042;38.994;2023-02-12T08:14:05;101917.22;;;3.61;67.50
50684;BME280;36654;45.042;38.994;2023-02-12T08:16:35;101905.09;;;3.63;66.72
50684;BME280;36654;45.042;38.994;2023-02-12T08:19:01;101891.88;;;3.77;66.84
50684;BME280;36654;45.042;38.994;2023-02-12T08:21:27;101876.09;;;3.92;66.46
50684;BME280;36654;45.042;38.994;2023-02-12T08:23:55;101873.47;;;3.92;65.84
50684;BME280;36654;45.042;38.994;2023-02-12T08:26:37;101899.03;;;4.10;66.88
50684;BME280;36654;45.042;38.994;2023-02-12T08:29:07;101895.03;;;4.17;65.37
50684;BME280;36654;45.042;38.994;2023-02-12T08:31:38;101873.78;;;4.29;64.97
50684;BME280;36654;45.042;38.994;2023-02-12T08:34:04;101899.09;;;4.27;64.46
50684;BME280;36654;45.042;38.994;2023-02-12T08:36:35;101902.34;;;4.23;65.12
50684;BME280;36654;45.042;38.994;2023-02-12T08:39:01;101887.41;;;4.22;65.02
50684;BME280;36654;45.042;38.994;2023-02-12T08:41:28;101898.88;;;4.24;64.83
50684;BME280;36654;45.042;38.994;2023-02-12T08:43:56;101878.03;;;4.10;65.31
50684;BME280;36654;45.042;38.994;2023-02-12T08:46:25;101863.41;;;3.99;65.70
50684;BME280;36654;45.042;38.994;2023-02-12T08:48:53;101888.38;;;4.07;66.47
50684;BME280;36654;45.042;38.994;2023-02-12T08:51:25;101879.50;;;4.05;66.69
50684;BME280;36654;45.042;38.994;2023-02-12T08:53:54;101868.13;;;4.05;65.96
50684;BME280;36654;45.042;38.994;2023-02-12T08:56:20;101858.00;;;3.96;65.84
50684;BME280;36654;45.042;38.994;2023-02-12T08:58:46;101858.97;;;3.98;66.37
50684;BME280;36654;45.042;38.994;2023-02-12T09:01:18;101878.50;;;4.03;66.33
50684;BME280;36654;45.042;38.994;2023-02-12T09:03:44;101849.22;;;3.96;66.50
50684;BME280;36654;45.042;38.994;2023-02-12T09:06:11;101859.50;;;4.24;66.57
50684;BME280;36654;45.042;38.994;2023-02-12T09:08:37;101807.34;;;4.14;66.39
50684;BME280;36654;45.042;38.994;2023-02-12T09:11:11;101856.91;;;4.40;66.71
50684;BME280;36654;45.042;38.994;2023-02-12T09:13:38;101845.56;;;4.41;66.26
50684;BME280;36654;45.042;38.994;2023-02-12T09:16:05;101830.31;;;4.34;66.74
50684;BME280;36654;45.042;38.994;2023-02-12T09:18:31;101843.84;;;4.42;67.16
50684;BME280;36654;45.042;38.994;2023-02-12T09:21:06;101826.72;;;4.32;67.30
50684;BME280;36654;45.042;38.994;2023-02-12T09:23:32;101827.53;;;4.47;67.46
50684;BME280;36654;45.042;38.994;2023-02-12T09:25:58;101800.28;;;4.45;67.46
50684;BME280;36654;45.042;38.994;2023-02-12T09:28:24;101817.50;;;4.57;67.54
50684;BME280;36654;45.042;38.994;2023-02-12T09:30:50;101806.75;;;4.68;67.09
50684;BME280;36654;45.042;38.994;2023-02-12T09:33:16;101805.75;;;4.83;66.99
50684;BME280;36654;45.042;38.994;2023-02-12T09:35:42;101805.00;;;4.85;66.67
50684;BME280;36654;45.042;38.994;2023-02-12T09:38:08;101787.84;;;4.92;66.16
50684;BME280;36654;45.042;38.994;2023-02-12T09:41:10;101799.38;;;4.95;65.55
50684;BME280;36654;45.042;38.994;2023-02-12T09:44:05;101800.38;;;4.97;65.03
50684;BME280;36654;45.042;38.994;2023-02-12T09:46:44;101796.91;;;4.98;65.11
50684;BME280;36654;45.042;38.994;2023-02-12T09:49:22;101801.34;;;5.00;65.26
50684;BME280;36654;45.042;38.994;2023-02-12T09:51:50;101784.59;;;4.97;65.05
50684;BME280;36654;45.042;38.994;2023-02-12T09:54:20;101783.31;;;4.89;64.81
50684;BME280;36654;45.042;38.994;2023-02-12T09:57:15;101771.97;;;4.90;64.98
50684;BME280;36654;45.042;38.994;2023-02-12T09:59:51;101775.44;;;4.89;64.81
50684;BME280;36654;45.042;38.994;2023-02-12T10:02:19;101796.59;;;4.92;64.72
50684;BME280;36654;45.042;38.994;2023-02-12T10:04:47;101753.63;;;4.74;64.71
50684;BME280;36654;45.042;38.994;2023-02-12T10:09:56;101777.09;;;5.05;64.48
50684;BME280;36654;45.042;38.994;2023-02-12T10:12:49;101773.81;;;5.09;64.67
50684;BME280;36654;45.042;38.994;2023-02-12T10:18:07;101759.75;;;5.09;64.30
50684;BME280;36654;45.042;38.994;2023-02-12T10:20:53;101760.56;;;5.08;63.73
50684;BME280;36654;45.042;38.994;2023-02-12T10:24:04;101776.13;;;5.03;62.89
50684;BME280;36654;45.042;38.994;2023-02-12T10:26:43;101747.06;;;5.00;62.65
50684;BME280;36654;45.042;38.994;2023-02-12T10:29:23;101772.59;;;5.03;62.50
50684;BME280;36654;45.042;38.994;2023-02-12T10:31:54;101759.53;;;5.04;62.75
50684;BME280;36654;45.042;38.994;2023-02-12T10:34:25;101741.19;;;5.06;62.15
50684;BME280;36654;45.042;38.994;2023-02-12T10:36:55;101680.06;;;4.74;62.24
50684;BME280;36654;45.042;38.994;2023-02-12T10:39:40;101735.72;;;5.01;61.29
50684;BME280;36654;45.042;38.994;2023-02-12T10:42:11;101719.88;;;5.00;61.29
50684;BME280;36654;45.042;38.994;2023-02-12T10:44:40;101734.28;;;5.08;61.14
50684;BME280;36654;45.042;38.994;2023-02-12T10:47:08;101732.78;;;5.13;59.92
50684;BME280;36654;45.042;38.994;2023-02-12T10:49:36;101717.69;;;5.09;59.07
50684;BME280;36654;45.042;38.994;2023-02-12T10:57:10;101642.09;;;4.85;58.15
50684;BME280;36654;45.042;38.994;2023-02-12T10:59:39;101703.63;;;5.26;57.49
50684;BME280;36654;45.042;38.994;2023-02-12T11:02:25;101716.47;;;5.38;56.66
50684;BME280;36654;45.042;38.994;2023-02-12T11:04:52;101703.41;;;5.39;57.12
50684;BME280;36654;45.042;38.994;2023-02-12T11:07:19;101674.81;;;5.10;55.09
50684;BME280;36654;45.042;38.994;2023-02-12T11:09:47;101677.50;;;5.11;54.84
50684;BME280;36654;45.042;38.994;2023-02-12T11:12:20;101719.84;;;5.35;54.68
50684;BME280;36654;45.042;38.994;2023-02-12T11:14:49;101714.31;;;5.29;53.46
50684;BME280;36654;45.042;38.994;2023-02-12T11:17:44;101710.84;;;5.30;52.84
50684;BME280;36654;45.042;38.994;2023-02-12T11:21:06;101712.03;;;5.19;52.69
50684;BME280;36654;45.042;38.994;2023-02-12T11:26:04;101700.13;;;5.08;53.80
50684;BME280;36654;45.042;38.994;2023-02-12T11:28:31;101712.50;;;5.10;54.24
50684;BME280;36654;45.042;38.994;2023-02-12T11:31:03;101713.41;;;5.11;54.64
50684;BME280;36654;45.042;38.994;2023-02-12T11:33:41;101701.09;;;5.10;54.95
50684;BME280;36654;45.042;38.994;2023-02-12T11:36:24;101682.88;;;4.95;54.81
50684;BME280;36654;45.042;38.994;2023-02-12T11:38:56;101695.75;;;5.08;55.21
50684;BME280;36654;45.042;38.994;2023-02-12T11:41:32;101690.22;;;5.02;55.46
50684;BME280;36654;45.042;38.994;2023-02-12T11:44:07;101690.75;;;5.13;55.49
50684;BME280;36654;45.042;38.994;2023-02-12T11:46:33;101649.88;;;4.84;55.63
50684;BME280;36654;45.042;38.994;2023-02-12T11:49:00;101704.78;;;5.13;55.80
50684;BME280;36654;45.042;38.994;2023-02-12T11:51:28;101702.91;;;5.11;55.98
50684;BME280;36654;45.042;38.994;2023-02-12T11:54:02;101702.91;;;5.11;56.04
50684;BME280;36654;45.042;38.994;2023-02-12T11:56:42;101700.97;;;5.07;56.26
50684;BME280;36654;45.042;38.994;2023-02-12T12:01:44;101695.53;;;5.04;56.15
50684;BME280;36654;45.042;38.994;2023-02-12T12:04:13;101689.28;;;5.02;56.23
50684;BME280;36654;45.042;38.994;2023-02-12T12:06:47;101678.41;;;4.94;55.79
50684;BME280;36654;45.042;38.994;2023-02-12T12:09:27;101679.47;;;4.97;55.57
50684;BME280;36654;45.042;38.994;2023-02-12T12:12:24;101697.94;;;4.99;55.81
50684;BME280;36654;45.042;38.994;2023-02-12T12:14:58;101697.03;;;4.98;55.97
50684;BME280;36654;45.042;38.994;2023-02-12T12:17:59;101704.91;;;4.98;56.00
50684;BME280;36654;45.042;38.994;2023-02-12T12:20:51;101695.09;;;4.94;56.10
50684;BME280;36654;45.042;38.994;2023-02-12T12:23:30;101708.25;;;4.94;56.32
50684;BME280;36654;45.042;38.994;2023-02-12T12:26:07;101700.38;;;4.94;56.61
50684;BME280;36654;45.042;38.994;2023-02-12T12:31:38;101700.03;;;4.88;56.61
50684;BME280;36654;45.042;38.994;2023-02-12T12:34:09;101677.97;;;4.85;56.76
50684;BME280;36654;45.042;38.994;2023-02-12T12:37:01;101653.03;;;4.59;57.01
50684;BME280;36654;45.042;38.994;2023-02-12T12:51:11;101660.72;;;4.72;56.83
50684;BME280;36654;45.042;38.994;2023-02-12T12:53:49;101640.50;;;4.71;56.89
50684;BME280;36654;45.042;38.994;2023-02-12T13:05:32;101659.41;;;4.64;57.05
50684;BME280;36654;45.042;38.994;2023-02-12T13:10:59;101668.78;;;4.59;56.78
50684;BME280;36654;45.042;38.994;2023-02-12T13:13:31;101663.53;;;4.59;56.69
50684;BME280;36654;45.042;38.994;2023-02-12T13:16:20;101668.78;;;4.59;56.70
50684;BME280;36654;45.042;38.994;2023-02-12T13:19:36;101683.66;;;4.58;56.92
50684;BME280;36654;45.042;38.994;2023-02-12T13:22:33;101700.00;;;4.52;57.26
50684;BME280;36654;45.042;38.994;2023-02-12T13:27:49;101689.13;;;4.45;57.52
50684;BME280;36654;45.042;38.994;2023-02-12T13:32:50;101664.47;;;4.08;58.60
50684;BME280;36654;45.042;38.994;2023-02-12T13:35:22;101682.88;;;4.43;59.48
50684;BME280;36654;45.042;38.994;2023-02-12T13:37:54;101704.03;;;4.46;60.14
50684;BME280;36654;45.042;38.994;2023-02-12T13:40:20;101712.16;;;4.50;60.45
50684;BME280;36654;45.042;38.994;2023-02-12T13:42:55;101679.53;;;4.29;61.16
50684;BME280;36654;45.042;38.994;2023-02-12T13:48:49;101688.03;;;4.41;62.98
50684;BME280;36654;45.042;38.994;2023-02-12T13:56:44;101698.59;;;4.25;65.83
50684;BME280;36654;45.042;38.994;2023-02-12T14:02:27;101697.06;;;4.12;66.74
50684;BME280;36654;45.042;38.994;2023-02-12T14:07:49;101708.09;;;4.06;66.98
50684;BME280;36654;45.042;38.994;2023-02-12T14:10:24;101700.72;;;3.99;66.96
50684;BME280;36654;45.042;38.994;2023-02-12T14:12:52;101700.84;;;3.84;67.76
50684;BME280;36654;45.042;38.994;2023-02-12T14:15:34;101669.88;;;3.46;69.77
50684;BME280;36654;45.042;38.994;2023-02-12T14:20:34;101657.97;;;3.20;71.64
50684;BME280;36654;45.042;38.994;2023-02-12T14:23:20;101695.09;;;3.28;73.11
50684;BME280;36654;45.042;38.994;2023-02-12T14:33:51;101684.31;;;2.92;75.94
50684;BME280;36654;45.042;38.994;2023-02-12T14:41:21;101685.97;;;2.90;77.09
50684;BME280;36654;45.042;38.994;2023-02-12T14:46:52;101678.59;;;2.83;77.89
50684;BME280;36654;45.042;38.994;2023-02-12T14:49:45;101671.53;;;2.81;78.13
50684;BME280;36654;45.042;38.994;2023-02-12T14:52:17;101681.72;;;2.77;78.46
50684;BME280;36654;45.042;38.994;2023-02-12T14:54:55;101670.63;;;2.66;78.85
50684;BME280;36654;45.042;38.994;2023-02-12T14:59:58;101687.25;;;2.67;79.42